Portada
METAR-TAF:

METAR-TAF

Aeropuertos :

Aeropuerto de Madrid-Barajas

Madrid, España

latitud: 40-27N, longitud: 003-33W, altitud: 609 m

Observación

El informe se hizo hace 27 minutos, a las 07:30 UTC
Viento 7 kt del norte, variando entre norte-noroeste y noreste
Temperatura 16°C
Humedad 48%
Presión 1020 hPa
Visibilidad 10 km o más
sin nubes por debajo de 1500 m y sin presencia de cumulonimbus.

METAR: LEMD 250730Z 36007KT 330V040 CAVOK 16/05 Q1020 NOSIG

Hora: 09:57 (07:57 UTC)

Pronóstico

El informe se hizo hace 2 horas y 57 minutos, a las 05:00 UTC
Pronóstico válido del 25 a las 06 UTC al 26 a las 12 UTC
Viento 8 kt del norte-noreste
Visibilidad 10 km o más
sin nubes por debajo de 1500 m y sin presencia de cumulonimbus.
Temporalmente
del 25 a las 09 UTC al 25 a las 21 UTC
Viento 18 kt del noreste con ráfagas de 28 kt

TAF: LEMD 250500Z 2506/2612 03008KT CAVOK TX26/2515Z TN10/2605Z TEMPO 2509/2521 04018G28KT

Observaciones y pronósticos meteorológicos de más de 4000 aeropuertos (mensajes METAR y TAF).

Los puntos amarillos y rojos representan las estaciones disponibles.

Ponga el ratón en el punto deseado para ver el nombre de la estación.

Haga clic para ver las observaciones y los pronósticos meteorológicos.

Para cambiar el mapa : haga clic en los botones verdes con una cruz de color negro para hacer un zoom, en el botón verde con un guión para alejar o en las flechas verdes para mapas adyacentes.


METAR-TAF: